Time;durP1;ratioP1;P1;durP2;ratioP2;P2;SDS_P1;SDS_P2;PMS_P1;PMS_P2;Temp;Humidity;BMP_temperature;BMP_pressure;BME280_temperature;BME280_humidity;BME280_pressure;Samples;Min_cycle;Max_cycle;Signal;HPM_P1;HPM_P2
2024/04/14 13:11:23;;;;;;;3.30;1.58;;;;;;;23.23;27.78;94361.66;5273242;21;20102;-78
2024/04/14 13:13:48;;;;;;;2.25;1.40;;;;;;;22.99;28.52;94346.81;5226050;26;20005;-78
2024/04/14 13:16:14;;;;;;;5.13;1.48;;;;;;;22.96;27.99;94344.88;5214074;26;20050;-78
2024/04/14 13:18:39;;;;;;;4.63;2.33;;;;;;;22.97;27.68;94346.44;5208472;27;21430;-78
2024/04/14 13:21:05;;;;;;;3.42;1.40;;;;;;;23.30;27.67;94348.16;5223244;26;20032;-79
2024/04/14 13:23:31;;;;;;;1.98;1.45;;;;;;;23.10;27.74;94344.94;5241050;26;25046;-78
2024/04/14 13:25:56;;;;;;;4.47;1.65;;;;;;;23.15;27.98;94331.78;5259786;26;20024;-79
2024/04/14 13:28:22;;;;;;;3.85;1.65;;;;;;;23.22;26.79;94333.00;5239929;26;20016;-78
2024/04/14 13:30:47;;;;;;;4.95;1.50;;;;;;;23.17;26.91;94328.72;5246747;26;20612;-80
2024/04/14 13:33:13;;;;;;;3.83;1.30;;;;;;;23.28;26.74;94328.75;5251014;26;20080;-78
2024/04/14 13:35:39;;;;;;;3.60;1.35;;;;;;;23.56;26.45;94328.91;5239783;26;20029;-78
2024/04/14 13:38:05;;;;;;;7.13;1.50;;;;;;;23.77;26.70;94328.94;5248713;26;20013;-77
2024/04/14 13:40:30;;;;;;;2.78;1.30;;;;;;;23.71;26.12;94325.03;5248827;26;20562;-77
2024/04/14 13:42:56;;;;;;;3.85;1.30;;;;;;;23.98;26.37;94320.06;5225142;27;20002;-75
2024/04/14 13:45:21;;;;;;;2.65;1.23;;;;;;;23.97;26.06;94311.13;5214449;27;20022;-75
2024/04/14 13:47:47;;;;;;;3.40;1.23;;;;;;;24.35;28.25;94314.28;5215568;27;20018;-75
2024/04/14 13:50:14;;;;;;;2.15;1.25;;;;;;;24.26;26.44;94324.78;5214104;27;20022;-76
2024/04/14 13:52:41;;;;;;;2.45;1.17;;;;;;;24.34;26.00;94318.19;5213198;27;20106;-76
2024/04/14 13:55:06;;;;;;;3.58;1.10;;;;;;;24.28;25.40;94308.88;5251089;26;20002;-76
2024/04/14 13:57:31;;;;;;;3.03;1.30;;;;;;;24.39;25.70;94307.69;5260433;26;20544;-76
2024/04/14 13:59:57;;;;;;;3.60;1.52;;;;;;;24.47;24.45;94310.41;5264868;26;20039;-77
2024/04/14 14:02:22;;;;;;;2.80;1.52;;;;;;;24.38;24.26;94310.81;5267980;26;20006;-76
2024/04/14 14:04:48;;;;;;;3.90;1.05;;;;;;;23.86;24.33;94314.97;5269598;26;20629;-76
2024/04/14 14:07:13;;;;;;;3.58;1.20;;;;;;;24.16;24.07;94306.53;5260233;26;20519;-76
2024/04/14 14:09:39;;;;;;;4.20;1.33;;;;;;;24.17;26.03;94308.06;5245076;26;20044;-76
2024/04/14 14:12:05;;;;;;;3.42;1.45;;;;;;;24.18;24.55;94299.53;5245116;26;20076;-77
2024/04/14 14:14:30;;;;;;;1.52;1.20;;;;;;;24.37;25.09;94301.09;5256780;26;20382;-77
2024/04/14 14:16:56;;;;;;;1.77;1.10;;;;;;;24.39;24.97;94313.13;5254001;26;20040;-77
2024/04/14 14:19:21;;;;;;;3.30;1.13;;;;;;;24.37;24.33;94310.03;5213590;26;20572;-77
2024/04/14 14:21:47;;;;;;;1.95;1.27;;;;;;;24.46;24.17;94311.56;5240446;26;20020;-76
2024/04/14 14:24:12;;;;;;;1.98;1.42;;;;;;;24.69;24.48;94307.28;5250175;26;20046;-77
2024/04/14 14:26:38;;;;;;;4.95;1.20;;;;;;;24.57;23.10;94299.53;5254273;26;20647;-78
2024/04/14 14:29:03;;;;;;;3.22;1.20;;;;;;;24.54;24.44;94294.09;5255218;26;20005;-78
2024/04/14 14:31:29;;;;;;;1.30;0.90;;;;;;;24.33;22.78;94300.31;5246663;26;20021;-78
2024/04/14 14:36:38;;;;;;;1.70;1.30;;;;;;;24.87;24.25;94303.78;5249659;26;20085;-78
2024/04/14 14:39:04;;;;;;;2.75;0.90;;;;;;;24.84;23.13;94297.16;5259080;26;20466;-79
2024/04/14 14:41:32;;;;;;;5.93;1.40;;;;;;;24.35;23.03;94298.75;5252324;26;20018;-79
2024/04/14 14:43:58;;;;;;;6.05;1.25;;;;;;;24.22;23.24;94294.88;5238854;26;20053;-78
2024/04/14 14:46:24;;;;;;;3.63;0.88;;;;;;;23.95;23.81;94285.53;5251700;26;20501;-78
2024/04/14 14:48:50;;;;;;;4.18;1.35;;;;;;;24.30;23.29;94292.94;5248155;26;20029;-76
2024/04/14 14:51:16;;;;;;;4.68;1.13;;;;;;;24.14;23.17;94281.69;5251210;26;20346;-76
2024/04/14 14:53:41;;;;;;;5.10;1.50;;;;;;;24.21;23.10;94287.09;5251691;26;20382;-76
2024/04/14 14:56:07;;;;;;;1.38;0.80;;;;;;;24.28;23.27;94292.56;5248121;26;20006;-76
2024/04/14 14:58:33;;;;;;;2.63;1.27;;;;;;;24.05;23.25;94284.75;5244973;26;20003;-76
2024/04/14 15:00:59;;;;;;;3.17;1.23;;;;;;;24.23;22.43;94277.41;5246991;26;20521;-76
2024/04/14 15:03:25;;;;;;;4.20;1.02;;;;;;;24.27;23.02;94278.19;5253145;26;20464;-76
2024/04/14 15:05:51;;;;;;;3.25;1.15;;;;;;;24.19;22.92;94268.50;5257137;26;20005;-76
2024/04/14 15:08:16;;;;;;;3.80;1.15;;;;;;;24.23;22.73;94271.97;5262843;26;20058;-76
2024/04/14 15:10:46;;;;;;;4.72;0.88;;;;;;;24.10;22.23;94280.88;5248504;26;21166;-76
2024/04/14 15:13:14;;;;;;;4.72;0.70;;;;;;;23.74;21.78;94253.69;5252315;26;20010;-76
2024/04/14 15:15:44;;;;;;;1.60;0.90;;;;;;;23.93;22.39;94269.63;5244331;26;20006;-76
2024/04/14 15:18:10;;;;;;;3.15;0.90;;;;;;;23.91;22.91;94265.72;5241520;26;20519;-76
2024/04/14 15:20:36;;;;;;;4.00;1.05;;;;;;;23.84;22.92;94268.44;5256115;26;21481;-76
2024/04/14 15:23:02;;;;;;;2.38;0.90;;;;;;;23.58;22.83;94264.13;5256658;26;20368;-76
2024/04/14 15:25:27;;;;;;;2.70;1.02;;;;;;;23.64;23.00;94267.25;5246256;26;20025;-76
2024/04/14 15:27:53;;;;;;;4.20;1.33;;;;;;;23.42;23.27;94271.78;5240315;26;20025;-76
2024/04/14 15:30:19;;;;;;;1.55;1.27;;;;;;;23.28;23.23;94263.59;5238090;26;20168;-76
2024/04/14 15:32:44;;;;;;;1.02;0.80;;;;;;;23.15;23.85;94274.03;5245347;26;20071;-76
2024/04/14 15:35:09;;;;;;;2.00;0.82;;;;;;;23.30;22.71;94266.72;5252586;26;20017;-76
2024/04/14 15:37:35;;;;;;;1.85;1.25;;;;;;;23.33;23.04;94271.38;5248825;26;20017;-76
2024/04/14 15:40:01;;;;;;;3.10;1.10;;;;;;;23.28;22.55;94269.03;5243417;26;20011;-76
2024/04/14 15:42:27;;;;;;;3.42;1.10;;;;;;;23.27;23.18;94270.22;5247291;26;20006;-76
2024/04/14 15:44:52;;;;;;;1.42;0.80;;;;;;;23.34;22.87;94278.38;5252346;26;20532;-76
2024/04/14 15:47:18;;;;;;;3.90;0.82;;;;;;;23.36;22.85;94276.06;5247372;26;20002;-76
2024/04/14 15:49:46;;;;;;;2.63;0.95;;;;;;;23.31;22.89;94282.63;5248757;26;20276;-76
2024/04/14 15:52:12;;;;;;;1.55;0.80;;;;;;;23.32;22.78;94275.28;5235705;26;20113;-75
2024/04/14 15:54:38;;;;;;;2.88;0.82;;;;;;;23.40;23.18;94272.19;5249675;26;20028;-76
2024/04/14 15:57:04;;;;;;;3.42;0.80;;;;;;;23.38;23.15;94279.94;5250567;26;20090;-76
2024/04/14 15:59:29;;;;;;;0.70;0.70;;;;;;;23.36;23.12;94271.41;5253336;26;20556;-76
2024/04/14 16:01:55;;;;;;;1.73;0.88;;;;;;;23.33;22.98;94276.81;5255642;26;20618;-75
2024/04/14 16:04:20;;;;;;;1.80;0.80;;;;;;;23.35;22.88;94277.22;5232706;26;20370;-75
2024/04/14 16:06:45;;;;;;;3.92;0.77;;;;;;;23.31;22.50;94276.44;5241677;26;20009;-76
2024/04/14 16:09:11;;;;;;;2.83;0.93;;;;;;;23.33;23.20;94276.81;5252801;26;24980;-75
2024/04/14 16:11:36;;;;;;;1.00;0.93;;;;;;;23.29;23.16;94278.75;5254488;26;20024;-76
2024/04/14 16:14:01;;;;;;;2.70;1.05;;;;;;;23.26;23.62;94279.50;5253760;26;20443;-75
2024/04/14 16:16:27;;;;;;;8.57;2.10;;;;;;;23.29;23.96;94278.75;5244809;26;20092;-75
2024/04/14 16:18:52;;;;;;;2.28;1.10;;;;;;;23.26;23.33;94282.22;5239534;26;20024;-76
2024/04/14 16:21:18;;;;;;;3.30;1.10;;;;;;;23.10;23.98;94277.91;5242697;26;20032;-75
2024/04/14 16:23:45;;;;;;;1.10;0.90;;;;;;;23.17;24.43;94281.81;5236041;26;20987;-77
2024/04/14 16:26:11;;;;;;;1.95;0.90;;;;;;;23.10;23.89;94283.31;5249053;26;20040;-76
2024/04/14 16:28:38;;;;;;;3.05;1.25;;;;;;;23.00;25.67;94283.28;5250392;26;20016;-77
2024/04/14 16:31:03;;;;;;;3.60;1.02;;;;;;;23.01;25.82;94291.03;5234748;26;20010;-77
2024/04/14 16:33:29;;;;;;;2.17;1.63;;;;;;;22.93;27.68;94291.38;5249072;26;20406;-77
2024/04/14 16:35:54;;;;;;;40.28;32.33;;;;;;;22.90;26.07;94290.19;5244863;26;20047;-77
2024/04/14 16:38:20;;;;;;;90.63;73.13;;;;;;;22.72;26.74;94286.59;5251580;26;20120;-77
2024/04/14 16:40:45;;;;;;;28.80;21.75;;;;;;;22.63;26.41;94286.16;5253655;26;20130;-77
2024/04/14 16:43:10;;;;;;;6.93;3.88;;;;;;;22.61;26.22;94285.75;5255444;26;20368;-77
2024/04/14 16:45:37;;;;;;;4.60;2.20;;;;;;;22.54;26.72;94291.09;5237563;26;20024;-77
2024/04/14 16:48:02;;;;;;;8.40;1.70;;;;;;;22.49;27.35;94277.91;5253077;26;20006;-78
2024/04/14 16:50:29;;;;;;;4.53;1.80;;;;;;;22.39;26.48;94284.06;5253263;26;21413;-77
2024/04/14 16:52:54;;;;;;;3.95;1.10;;;;;;;22.37;26.12;94283.63;5239006;26;21230;-78
2024/04/14 16:55:19;;;;;;;4.53;1.13;;;;;;;22.33;25.94;94288.25;5238669;26;20021;-77
2024/04/14 16:57:45;;;;;;;4.07;1.58;;;;;;;22.27;26.78;94288.59;5242473;26;20020;-77
2024/04/14 17:00:11;;;;;;;2.55;1.67;;;;;;;22.30;26.02;94287.84;5232280;26;20727;-78
2024/04/14 17:02:36;;;;;;;5.30;2.80;;;;;;;22.26;25.85;94289.75;5244046;26;20453;-77
2024/04/14 17:05:02;;;;;;;5.05;1.60;;;;;;;22.17;26.51;94294.69;5249551;26;20017;-78
2024/04/14 17:07:28;;;;;;;2.60;1.83;;;;;;;22.25;26.79;94300.97;5245353;26;20516;-78
2024/04/14 17:09:53;;;;;;;2.30;1.75;;;;;;;22.25;27.13;94295.53;5245834;26;20109;-77
2024/04/14 17:12:19;;;;;;;28.73;21.52;;;;;;;22.07;28.14;94303.50;5239661;26;20017;-77
2024/04/14 17:14:44;;;;;;;48.40;32.95;;;;;;;22.03;28.65;94304.63;5238143;26;20061;-77
2024/04/14 17:17:10;;;;;;;13.38;9.50;;;;;;;21.92;28.86;94296.41;5233233;26;20033;-78
2024/04/14 17:19:35;;;;;;;3.42;1.50;;;;;;;21.78;28.38;94288.16;5234983;26;20006;-78
2024/04/14 17:22:01;;;;;;;2.90;1.55;;;;;;;21.77;30.16;94302.81;5241766;26;20020;-78
2024/04/14 17:24:26;;;;;;;1.63;1.10;;;;;;;21.69;28.85;94302.00;5243069;26;20017;-78
2024/04/14 17:26:51;;;;;;;1.77;1.02;;;;;;;21.59;28.65;94302.66;5246161;26;20009;-78
2024/04/14 17:29:17;;;;;;;2.97;1.05;;;;;;;21.52;29.94;94296.34;5239525;26;20566;-77
2024/04/14 17:31:42;;;;;;;4.45;1.50;;;;;;;21.45;29.97;94297.84;5256901;26;20013;-78
2024/04/14 17:34:07;;;;;;;2.28;1.50;;;;;;;21.38;30.38;94297.75;5241015;26;20014;-78
2024/04/14 17:36:33;;;;;;;3.50;1.90;;;;;;;21.18;30.73;94309.09;5252353;26;20407;-78
2024/04/14 17:38:59;;;;;;;4.28;1.70;;;;;;;21.22;30.75;94304.50;5242607;26;20046;-78
2024/04/14 17:41:25;;;;;;;2.72;1.50;;;;;;;21.25;30.56;94312.69;5254531;26;20003;-77
2024/04/14 17:43:51;;;;;;;4.00;1.90;;;;;;;21.25;30.72;94317.31;5249155;26;20006;-79
2024/04/14 17:46:16;;;;;;;3.90;1.40;;;;;;;21.25;31.16;94320.81;5249569;26;20049;-78
2024/04/14 17:48:42;;;;;;;8.95;1.63;;;;;;;21.29;30.89;94318.91;5253586;26;20065;-78
2024/04/14 17:51:07;;;;;;;4.25;1.80;;;;;;;21.33;31.03;94319.72;5246363;26;20028;-78
2024/04/14 17:53:35;;;;;;;3.83;1.88;;;;;;;21.32;31.64;94325.50;5247283;26;20021;-78
2024/04/14 17:56:01;;;;;;;2.65;1.60;;;;;;;21.30;31.06;94334.00;5231506;26;20124;-78
2024/04/14 17:58:28;;;;;;;3.78;1.40;;;;;;;21.21;30.75;94314.56;5249399;26;20094;-78
2024/04/14 18:00:59;;;;;;;5.00;1.70;;;;;;;21.20;30.79;94331.94;5252615;26;20014;-78
2024/04/14 18:03:26;;;;;;;5.38;1.60;;;;;;;21.18;31.03;94326.13;5248698;26;20002;-77
2024/04/14 18:05:52;;;;;;;4.70;1.70;;;;;;;21.19;30.89;94333.09;5258008;26;21184;-78
2024/04/14 18:08:17;;;;;;;3.08;1.55;;;;;;;21.03;30.44;94324.38;5252238;26;20335;-78
2024/04/14 18:10:43;;;;;;;2.38;1.75;;;;;;;21.13;29.96;94334.56;5248259;26;20025;-78
2024/04/14 18:13:08;;;;;;;1.70;1.27;;;;;;;21.08;29.55;94334.88;5245029;26;20089;-78
2024/04/14 18:15:34;;;;;;;1.73;1.27;;;;;;;21.05;29.59;94346.44;5249360;26;20049;-78
2024/04/14 18:18:01;;;;;;;2.78;1.73;;;;;;;21.02;29.62;94342.50;5246841;26;20026;-78
2024/04/14 18:20:28;;;;;;;4.60;1.70;;;;;;;20.98;29.65;94340.91;5251945;26;20003;-78
2024/04/14 18:22:53;;;;;;;4.60;1.98;;;;;;;20.98;28.98;94343.63;5249667;26;20232;-77
2024/04/14 18:25:19;;;;;;;1.77;1.02;;;;;;;20.72;29.72;94311.19;5246389;26;21505;-78
2024/04/14 18:27:44;;;;;;;2.30;1.30;;;;;;;20.89;29.64;94340.41;5256459;26;20088;-78
2024/04/14 18:30:11;;;;;;;1.92;1.30;;;;;;;20.91;29.51;94355.13;5245870;26;20070;-78
2024/04/14 18:32:38;;;;;;;2.63;1.50;;;;;;;20.82;29.70;94356.50;5243087;26;20748;-78
2024/04/14 18:35:04;;;;;;;1.35;1.10;;;;;;;20.74;29.75;94350.22;5244905;26;20024;-78
2024/04/14 18:37:30;;;;;;;2.15;1.42;;;;;;;20.76;29.45;94352.56;5248093;26;21182;-78
2024/04/14 18:39:55;;;;;;;3.72;1.40;;;;;;;20.69;29.93;94357.84;5247933;26;20025;-78
2024/04/14 18:42:20;;;;;;;2.33;1.50;;;;;;;20.63;30.43;94356.63;5251528;26;20029;-77
2024/04/14 18:44:46;;;;;;;3.88;1.27;;;;;;;20.68;30.33;94359.75;5248329;26;20388;-78
2024/04/14 18:47:12;;;;;;;2.35;1.30;;;;;;;20.62;29.76;94338.84;5231115;26;20020;-77
2024/04/14 18:49:38;;;;;;;2.17;1.17;;;;;;;20.77;29.83;94364.94;5240274;26;20325;-78
2024/04/14 18:52:04;;;;;;;4.70;1.75;;;;;;;20.54;31.48;94360.34;5244654;26;20007;-78
2024/04/14 18:54:30;;;;;;;2.85;1.67;;;;;;;20.46;29.92;94364.09;5243262;26;20010;-78
2024/04/14 18:56:56;;;;;;;1.75;1.38;;;;;;;20.48;31.32;94363.72;5237540;26;20421;-78
2024/04/14 18:59:21;;;;;;;1.95;1.30;;;;;;;20.44;31.19;94363.66;5212112;26;20025;-78
2024/04/14 19:01:47;;;;;;;3.15;1.52;;;;;;;20.32;31.76;94361.16;5239683;26;20031;-78
2024/04/14 19:04:12;;;;;;;2.45;1.33;;;;;;;20.25;31.46;94355.63;5228954;26;20109;-78
2024/04/14 19:06:37;;;;;;;5.22;1.25;;;;;;;20.15;31.04;94348.09;5237384;26;20572;-78
2024/04/14 19:09:03;;;;;;;2.55;1.20;;;;;;;20.07;29.29;94349.13;5254360;26;21476;-78
2024/04/14 19:11:28;;;;;;;1.80;1.27;;;;;;;20.17;30.84;94349.34;5236881;26;20299;-78
2024/04/14 19:13:54;;;;;;;3.22;1.17;;;;;;;20.12;30.81;94355.00;5243481;26;20362;-78
2024/04/14 19:16:20;;;;;;;4.63;1.40;;;;;;;20.11;29.96;94349.97;5241572;26;20017;-78
2024/04/14 19:18:45;;;;;;;2.58;1.50;;;;;;;20.10;29.22;94348.38;5240435;26;20871;-77
2024/04/14 19:21:11;;;;;;;1.95;1.30;;;;;;;20.02;29.32;94352.13;5245416;26;20637;-77
2024/04/14 19:23:37;;;;;;;4.30;1.67;;;;;;;20.05;29.50;94348.69;5201895;26;20028;-78
2024/04/14 19:26:09;;;;;;;1.27;1.13;;;;;;;20.05;29.21;94348.69;5227895;26;20017;-78
2024/04/14 19:28:35;;;;;;;2.03;1.10;;;;;;;20.01;29.06;94345.16;5243548;26;20653;-78
2024/04/14 19:31:01;;;;;;;2.25;1.40;;;;;;;20.02;28.79;94346.72;5239729;26;20046;-78
2024/04/14 19:33:26;;;;;;;3.63;1.42;;;;;;;19.97;29.52;94345.09;5241931;26;20049;-77
2024/04/14 19:35:52;;;;;;;6.30;1.60;;;;;;;19.64;29.48;94320.59;5241249;26;20227;-77
2024/04/14 19:38:17;;;;;;;2.25;1.40;;;;;;;19.46;29.43;94341.06;5244696;26;20010;-77
2024/04/14 19:40:43;;;;;;;5.28;1.27;;;;;;;19.46;29.60;94335.66;5240752;26;20014;-78
2024/04/14 19:43:09;;;;;;;2.72;1.60;;;;;;;19.51;29.46;94338.06;5239483;26;20594;-78
2024/04/14 19:45:34;;;;;;;3.13;2.13;;;;;;;19.50;29.18;94331.13;5243715;26;20047;-77
2024/04/14 19:48:00;;;;;;;4.60;2.08;;;;;;;19.47;30.30;94338.00;5243784;26;20001;-78
2024/04/14 19:50:26;;;;;;;3.63;1.88;;;;;;;19.35;29.77;94340.06;5238897;26;20642;-77
2024/04/14 19:52:52;;;;;;;4.13;2.05;;;;;;;19.25;30.56;94336.00;5246248;26;20561;-78
2024/04/14 19:55:18;;;;;;;2.65;1.88;;;;;;;19.07;29.43;94335.63;5244920;26;20024;-77
2024/04/14 19:57:43;;;;;;;4.57;2.35;;;;;;;19.06;28.97;94344.09;5230396;26;20348;-77
2024/04/14 20:00:11;;;;;;;5.50;1.50;;;;;;;19.08;29.62;94331.03;5238822;26;20002;-77
2024/04/14 20:02:39;;;;;;;2.45;1.52;;;;;;;18.96;29.36;94328.47;5244864;26;20082;-78
2024/04/14 20:05:05;;;;;;;1.80;1.33;;;;;;;18.88;29.80;94333.69;5240160;26;20014;-77
2024/04/14 20:07:30;;;;;;;2.58;1.50;;;;;;;18.85;30.75;94329.03;5241056;26;20344;-77
2024/04/14 20:09:56;;;;;;;3.63;2.10;;;;;;;18.59;29.00;94331.50;5235662;26;20303;-78
2024/04/14 20:12:21;;;;;;;2.45;1.63;;;;;;;18.53;29.64;94340.97;5242482;26;20010;-78
2024/04/14 20:14:47;;;;;;;2.38;1.60;;;;;;;18.38;29.38;94336.41;5230948;26;20591;-77
2024/04/14 20:17:12;;;;;;;2.72;1.58;;;;;;;18.38;30.37;94336.41;5244076;26;20010;-78
2024/04/14 20:19:38;;;;;;;3.83;1.73;;;;;;;18.41;30.03;94331.09;5241610;26;20436;-78
2024/04/14 20:22:03;;;;;;;3.00;1.40;;;;;;;18.42;30.05;94332.66;5247737;26;20081;-77
2024/04/14 20:24:28;;;;;;;1.38;1.08;;;;;;;18.49;29.50;94332.03;5257033;26;20368;-77
2024/04/14 20:26:54;;;;;;;2.33;1.45;;;;;;;18.46;29.51;94332.72;5245596;26;20021;-77
2024/04/14 20:29:20;;;;;;;1.75;1.30;;;;;;;18.50;29.79;94338.97;5244939;26;20006;-77
2024/04/14 20:31:45;;;;;;;3.33;2.45;;;;;;;18.42;29.56;94331.88;5245962;26;20271;-78
2024/04/14 20:34:11;;;;;;;4.40;2.83;;;;;;;18.41;29.19;94339.16;5248097;26;20002;-78
2024/04/14 20:36:37;;;;;;;3.63;2.50;;;;;;;18.48;28.25;94333.16;5252650;26;20006;-78
2024/04/14 20:39:03;;;;;;;5.30;3.50;;;;;;;18.53;27.53;94314.03;5243343;26;20003;-78
2024/04/14 20:41:28;;;;;;;5.68;2.53;;;;;;;18.53;28.77;94324.81;5250353;26;20339;-78
2024/04/14 20:43:54;;;;;;;4.03;3.10;;;;;;;18.38;29.96;94320.25;5251910;26;20015;-77
2024/04/14 20:46:19;;;;;;;6.78;3.60;;;;;;;18.27;29.34;94319.22;5254373;26;20001;-77
2024/04/14 20:48:45;;;;;;;6.40;4.28;;;;;;;18.28;28.94;94320.78;5257663;26;20349;-77
2024/04/14 20:51:12;;;;;;;5.05;3.67;;;;;;;18.17;29.14;94319.75;5243724;26;20017;-77
2024/04/14 20:53:39;;;;;;;3.22;2.10;;;;;;;18.13;29.17;94329.66;5254429;26;21103;-77
2024/04/14 20:56:05;;;;;;;3.70;3.08;;;;;;;18.07;29.38;94318.34;5254037;26;20021;-77
2024/04/14 20:58:30;;;;;;;2.90;2.58;;;;;;;18.08;29.90;94316.44;5248806;26;20025;-77
2024/04/14 21:00:56;;;;;;;4.47;2.03;;;;;;;18.00;29.60;94316.25;5253219;26;20014;-77
2024/04/14 21:03:21;;;;;;;2.78;1.80;;;;;;;18.02;29.36;94319.41;5246194;26;20013;-77
2024/04/14 21:05:47;;;;;;;2.83;1.42;;;;;;;18.00;29.14;94318.94;5257549;26;20011;-77
2024/04/14 21:08:13;;;;;;;1.73;1.02;;;;;;;17.88;29.31;94313.63;5259503;26;20025;-77
2024/04/14 21:10:38;;;;;;;3.30;1.17;;;;;;;17.71;28.50;94300.50;5252112;26;20007;-77
2024/04/14 21:13:08;;;;;;;4.07;0.90;;;;;;;17.83;28.50;94316.59;5256818;26;20010;-78
2024/04/14 21:15:33;;;;;;;1.65;0.80;;;;;;;17.77;28.81;94323.34;5254037;26;20006;-77
2024/04/14 21:17:59;;;;;;;1.30;0.70;;;;;;;17.68;28.51;94322.72;5249331;26;20869;-77
2024/04/14 21:20:24;;;;;;;3.65;1.40;;;;;;;17.58;28.34;94323.22;5244912;26;20313;-77
2024/04/14 21:22:50;;;;;;;3.55;1.15;;;;;;;17.61;28.02;94322.53;5249295;26;20013;-77
2024/04/14 21:25:16;;;;;;;2.58;0.90;;;;;;;17.60;28.48;94319.06;5243511;26;20448;-77
2024/04/14 21:27:41;;;;;;;2.70;1.02;;;;;;;17.58;28.43;94315.16;5254330;26;20591;-77
2024/04/14 21:30:07;;;;;;;0.75;0.68;;;;;;;17.45;28.62;94316.34;5253848;26;20012;-76
2024/04/14 21:32:33;;;;;;;1.35;0.90;;;;;;;17.29;28.99;94313.63;5250591;26;20381;-77
2024/04/14 21:34:58;;;;;;;1.73;0.93;;;;;;;17.26;29.05;94313.53;5251345;26;20005;-77
2024/04/14 21:37:24;;;;;;;1.27;0.88;;;;;;;17.32;28.79;94312.16;5242396;26;20480;-77
2024/04/14 21:39:49;;;;;;;2.28;1.27;;;;;;;17.23;28.85;94298.88;5253392;26;21185;-77
2024/04/14 21:42:16;;;;;;;2.83;1.13;;;;;;;17.26;28.87;94286.66;5253435;26;20010;-76
2024/04/14 21:44:42;;;;;;;2.35;0.95;;;;;;;17.24;29.36;94313.88;5252828;26;20011;-77
2024/04/14 21:47:07;;;;;;;3.05;1.45;;;;;;;17.20;29.08;94310.31;5252409;26;20005;-77
2024/04/14 21:49:35;;;;;;;1.10;1.00;;;;;;;17.29;29.64;94310.16;5249439;26;20002;-77
2024/04/14 21:52:01;;;;;;;4.03;1.92;;;;;;;17.16;29.83;94312.09;5250362;26;20519;-76
2024/04/14 21:54:27;;;;;;;2.55;1.30;;;;;;;17.17;29.48;94317.13;5255279;26;20021;-77
2024/04/14 21:56:52;;;;;;;2.08;1.20;;;;;;;17.05;28.97;94309.09;5253471;26;20017;-77
2024/04/14 21:59:20;;;;;;;1.02;0.90;;;;;;;16.93;29.52;94302.97;5250022;26;20384;-76
2024/04/14 22:01:46;;;;;;;1.00;0.90;;;;;;;16.88;29.34;94311.28;5253465;26;20219;-77
2024/04/14 22:04:12;;;;;;;1.33;1.00;;;;;;;16.88;29.51;94304.00;5251804;26;20021;-77
2024/04/14 22:06:38;;;;;;;1.85;1.08;;;;;;;16.83;30.42;94314.97;5221675;27;20009;-77
2024/04/14 22:09:03;;;;;;;1.30;1.20;;;;;;;16.73;30.71;94305.50;5255621;26;20041;-77
2024/04/14 22:11:29;;;;;;;1.90;1.05;;;;;;;16.77;31.54;94307.50;5245361;26;20448;-77
2024/04/14 22:13:54;;;;;;;2.20;1.13;;;;;;;16.74;30.95;94308.97;5250209;26;20010;-77
2024/04/14 22:16:19;;;;;;;1.42;1.13;;;;;;;16.68;31.32;94311.09;5251083;26;20020;-77
2024/04/14 22:18:45;;;;;;;2.70;1.25;;;;;;;16.71;31.42;94312.34;5253959;26;20434;-77
2024/04/14 22:21:10;;;;;;;2.83;1.00;;;;;;;16.69;31.29;94315.34;5248850;26;20007;-77
2024/04/14 22:23:36;;;;;;;1.88;1.48;;;;;;;16.62;31.86;94317.06;5235594;26;20022;-77
2024/04/14 22:26:01;;;;;;;1.60;1.30;;;;;;;16.47;32.44;94318.53;5252407;26;20428;-77
2024/04/14 22:28:27;;;;;;;1.70;1.52;;;;;;;16.49;32.26;94312.81;5253008;26;20396;-77
2024/04/14 22:30:52;;;;;;;7.55;1.60;;;;;;;16.53;32.62;94314.47;5248835;26;20244;-77
2024/04/14 22:33:17;;;;;;;3.88;2.20;;;;;;;16.52;32.36;94312.16;5255042;26;20427;-77
2024/04/14 22:35:43;;;;;;;7.10;3.05;;;;;;;16.53;32.34;94308.31;5237777;26;20103;-77
2024/04/14 22:38:08;;;;;;;5.60;2.97;;;;;;;16.47;32.97;94307.00;5245954;26;20017;-77
2024/04/14 22:40:34;;;;;;;6.03;2.15;;;;;;;16.36;33.08;94300.53;5254020;26;20018;-77
2024/04/14 22:43:00;;;;;;;2.30;1.70;;;;;;;16.31;33.53;94299.63;5258553;26;20530;-77
2024/04/14 22:45:25;;;;;;;2.88;1.65;;;;;;;16.33;33.69;94309.25;5247046;26;20025;-77
2024/04/14 22:47:51;;;;;;;5.20;2.00;;;;;;;16.26;33.96;94293.69;5246009;26;20014;-76
2024/04/14 22:50:17;;;;;;;2.88;2.05;;;;;;;16.21;33.79;94296.59;5254666;26;20006;-77
2024/04/14 22:52:42;;;;;;;3.20;1.92;;;;;;;16.18;33.59;94289.97;5251212;26;20014;-77
2024/04/14 22:55:08;;;;;;;3.35;1.35;;;;;;;16.28;33.65;94286.84;5244917;26;20349;-77
2024/04/14 22:57:34;;;;;;;3.17;1.60;;;;;;;16.20;33.97;94285.06;5248481;26;20009;-77
2024/04/14 22:59:59;;;;;;;3.95;1.60;;;;;;;16.17;33.89;94283.06;5247655;26;20005;-78
2024/04/14 23:02:25;;;;;;;2.95;2.00;;;;;;;16.13;34.43;94279.50;5247496;26;23020;-77
2024/04/14 23:04:50;;;;;;;1.80;1.30;;;;;;;16.19;34.07;94280.81;5254735;26;20017;-77
2024/04/14 23:07:16;;;;;;;4.72;1.67;;;;;;;16.09;34.42;94277.81;5253048;26;21117;-77
2024/04/14 23:09:41;;;;;;;2.15;1.58;;;;;;;16.06;34.58;94279.28;5253773;26;20009;-77
2024/04/14 23:12:07;;;;;;;13.02;2.40;;;;;;;16.10;34.60;94274.00;5244218;26;20028;-78
2024/04/14 23:14:32;;;;;;;8.15;1.75;;;;;;;16.06;34.79;94275.81;5246279;26;20013;-77
2024/04/14 23:16:58;;;;;;;5.93;1.77;;;;;;;15.99;34.69;94276.34;5253613;26;20661;-77
2024/04/14 23:19:23;;;;;;;3.13;1.50;;;;;;;15.99;34.99;94275.59;5251429;26;20013;-77
2024/04/14 23:21:49;;;;;;;2.47;1.60;;;;;;;16.04;35.25;94276.13;5250526;26;20045;-77
2024/04/14 23:24:14;;;;;;;2.22;1.70;;;;;;;16.04;34.82;94284.19;5253401;26;20686;-77
2024/04/14 23:26:39;;;;;;;1.83;1.35;;;;;;;15.99;35.18;94273.66;5249878;26;20084;-77
2024/04/14 23:29:05;;;;;;;2.22;1.80;;;;;;;15.92;35.16;94261.94;5253270;26;20025;-77
2024/04/14 23:31:31;;;;;;;3.40;1.50;;;;;;;15.79;35.67;94269.97;5251958;26;20025;-78
2024/04/14 23:33:56;;;;;;;6.95;1.67;;;;;;;15.79;36.06;94269.22;5243993;26;20037;-77
2024/04/14 23:36:23;;;;;;;3.35;1.70;;;;;;;15.80;36.59;94266.19;5251270;26;20460;-77
2024/04/14 23:38:49;;;;;;;1.77;1.45;;;;;;;15.70;36.41;94265.84;5252308;26;20006;-77
2024/04/14 23:41:15;;;;;;;6.30;1.77;;;;;;;15.69;36.82;94269.66;5256535;26;20618;-77
2024/04/14 23:43:40;;;;;;;3.90;2.00;;;;;;;15.53;37.25;94239.25;5244339;26;20010;-77
2024/04/14 23:46:05;;;;;;;3.30;1.63;;;;;;;15.63;37.27;94263.72;5246980;26;20425;-78
2024/04/14 23:48:31;;;;;;;3.40;1.90;;;;;;;15.64;37.22;94267.19;5222921;26;20126;-77
2024/04/14 23:50:56;;;;;;;3.63;2.22;;;;;;;15.60;37.45;94269.72;5251314;26;20021;-77
2024/04/14 23:53:22;;;;;;;2.63;2.13;;;;;;;15.51;37.40;94262.91;5249406;26;20078;-77
2024/04/14 23:55:47;;;;;;;5.97;2.60;;;;;;;15.52;37.79;94261.78;5251807;26;20812;-77
2024/04/14 23:58:16;;;;;;;3.15;2.20;;;;;;;15.55;37.71;94258.47;5245807;26;20025;-77
